createdAt,value
2022-11-28T00:02:11.007Z,100.00
2022-11-28T00:04:39.416Z,100.00
2022-11-28T00:07:08.185Z,100.00
2022-11-28T00:09:36.612Z,100.00
2022-11-28T00:12:04.964Z,100.00
2022-11-28T00:14:33.295Z,100.00
2022-11-28T00:17:01.715Z,100.00
2022-11-28T00:19:30.009Z,100.00
2022-11-28T00:21:58.356Z,100.00
2022-11-28T00:24:26.728Z,100.00
2022-11-28T00:26:55.003Z,100.00
2022-11-28T00:29:23.296Z,100.00
2022-11-28T00:31:51.756Z,100.00
2022-11-28T00:34:20.162Z,100.00
2022-11-28T00:36:49.161Z,100.00
2022-11-28T00:39:18.576Z,100.00
2022-11-28T00:41:46.871Z,100.00
2022-11-28T00:44:15.839Z,100.00
2022-11-28T00:46:44.215Z,100.00
2022-11-28T00:49:12.928Z,100.00
2022-11-28T00:51:41.173Z,100.00
2022-11-28T00:54:10.559Z,100.00
2022-11-28T00:56:40.567Z,100.00
2022-11-28T00:59:09.007Z,100.00
2022-11-28T01:01:41.484Z,100.00
2022-11-28T01:04:13.755Z,100.00
2022-11-28T01:06:48.144Z,100.00
2022-11-28T01:09:22.991Z,100.00
2022-11-28T01:11:53.599Z,100.00
2022-11-28T01:14:24.247Z,100.00
2022-11-28T01:16:53.187Z,100.00
2022-11-28T01:19:21.994Z,100.00
2022-11-28T01:21:50.344Z,100.00
2022-11-28T01:24:18.915Z,100.00
2022-11-28T01:26:50.884Z,100.00
2022-11-28T01:29:19.241Z,100.00
2022-11-28T01:31:47.447Z,100.00
2022-11-28T01:34:16.008Z,100.00
2022-11-28T01:36:44.421Z,100.00
2022-11-28T01:39:13.473Z,100.00
2022-11-28T01:41:41.765Z,100.00
2022-11-28T01:44:16.128Z,100.00
2022-11-28T01:46:44.597Z,100.00
2022-11-28T01:49:26.269Z,100.00
2022-11-28T01:52:01.559Z,100.00
2022-11-28T01:54:31.545Z,100.00
2022-11-28T01:57:07.191Z,100.00
2022-11-28T01:59:45.158Z,100.00
2022-11-28T02:02:20.345Z,100.00
2022-11-28T02:04:50.743Z,100.00
2022-11-28T02:07:20.376Z,100.00
2022-11-28T02:09:49.094Z,100.00
2022-11-28T02:12:30.962Z,100.00
2022-11-28T02:15:23.655Z,100.00
2022-11-28T02:18:10.893Z,100.00
2022-11-28T02:20:42.028Z,100.00
2022-11-28T02:23:21.656Z,100.00
2022-11-28T02:26:28.551Z,100.00
2022-11-28T02:29:23.015Z,100.00
2022-11-28T02:32:25.408Z,100.00
2022-11-28T02:35:15.338Z,100.00
2022-11-28T02:38:14.691Z,100.00
2022-11-28T02:41:05.146Z,100.00
2022-11-28T02:44:04.573Z,100.00
2022-11-28T02:46:52.421Z,100.00
2022-11-28T02:49:33.263Z,100.00
2022-11-28T02:52:13.205Z,100.00
2022-11-28T02:54:43.151Z,100.00
2022-11-28T02:57:11.667Z,100.00
2022-11-28T02:59:39.955Z,100.00
2022-11-28T03:02:18.783Z,100.00
2022-11-28T03:04:57.788Z,100.00
2022-11-28T03:07:32.298Z,100.00
2022-11-28T03:10:12.616Z,100.00
2022-11-28T03:12:43.797Z,100.00
2022-11-28T03:15:17.750Z,100.00
2022-11-28T03:18:09.667Z,100.00
2022-11-28T03:21:01.784Z,100.00
2022-11-28T03:24:08.701Z,100.00
2022-11-28T03:26:44.084Z,100.00
2022-11-28T03:29:23.770Z,100.00
2022-11-28T03:31:57.387Z,100.00
2022-11-28T03:34:33.239Z,100.00
2022-11-28T03:37:13.541Z,100.00
2022-11-28T03:39:48.552Z,100.00
2022-11-28T03:42:25.040Z,100.00
2022-11-28T03:45:01.905Z,100.00
2022-11-28T03:47:37.757Z,100.00
2022-11-28T03:50:11.123Z,100.00
2022-11-28T03:52:51.219Z,100.00
2022-11-28T03:55:28.221Z,100.00
2022-11-28T03:58:15.229Z,100.00
2022-11-28T04:01:09.750Z,100.00
2022-11-28T04:03:47.151Z,100.00
2022-11-28T04:06:19.173Z,100.00
2022-11-28T04:09:15.347Z,100.00
2022-11-28T04:12:00.060Z,100.00
2022-11-28T04:14:49.431Z,100.00
2022-11-28T04:17:35.600Z,100.00
2022-11-28T04:20:27.403Z,100.00
2022-11-28T04:23:01.248Z,100.00
2022-11-28T04:25:34.394Z,100.00
2022-11-28T04:28:08.840Z,100.00
2022-11-28T04:30:39.035Z,100.00
2022-11-28T04:33:11.665Z,100.00
2022-11-28T04:35:44.207Z,100.00
2022-11-28T04:38:14.322Z,100.00
2022-11-28T04:40:54.846Z,100.00
2022-11-28T04:43:50.932Z,100.00
2022-11-28T04:46:25.413Z,100.00
2022-11-28T04:48:54.780Z,100.00
2022-11-28T04:51:51.072Z,100.00
2022-11-28T04:54:41.055Z,100.00
2022-11-28T04:57:25.019Z,100.00
2022-11-28T04:59:56.548Z,100.00
2022-11-28T05:02:26.095Z,100.00
2022-11-28T05:04:56.021Z,100.00
2022-11-28T05:07:24.618Z,100.00
2022-11-28T05:09:52.889Z,100.00
2022-11-28T05:12:21.160Z,100.00
2022-11-28T05:14:49.396Z,100.00
2022-11-28T05:17:17.700Z,100.00
2022-11-28T05:19:46.000Z,100.00
2022-11-28T05:22:14.159Z,100.00
2022-11-28T05:24:42.434Z,100.00
2022-11-28T05:27:11.710Z,100.00
2022-11-28T05:29:46.908Z,100.00
2022-11-28T05:32:18.108Z,100.00
2022-11-28T05:34:46.476Z,100.00
2022-11-28T05:37:15.770Z,100.00
2022-11-28T05:39:44.282Z,100.00
2022-11-28T05:42:12.674Z,100.00
2022-11-28T05:44:40.899Z,100.00
2022-11-28T05:47:09.297Z,100.00
2022-11-28T05:49:37.522Z,100.00
2022-11-28T05:52:05.790Z,100.00
2022-11-28T05:54:34.543Z,100.00
2022-11-28T05:57:03.293Z,100.00
2022-11-28T05:59:31.638Z,100.00
2022-11-28T06:02:00.181Z,100.00
2022-11-28T06:04:28.657Z,100.00
2022-11-28T06:06:56.947Z,100.00
2022-11-28T06:09:26.175Z,100.00
2022-11-28T06:11:54.733Z,100.00
2022-11-28T06:14:22.931Z,100.00
2022-11-28T06:16:51.271Z,100.00
2022-11-28T06:19:19.924Z,100.00
2022-11-28T06:21:50.572Z,100.00
2022-11-28T06:24:18.881Z,100.00
2022-11-28T06:26:47.199Z,100.00
2022-11-28T06:29:15.739Z,100.00
2022-11-28T06:31:44.235Z,100.00
2022-11-28T06:34:13.206Z,100.00
2022-11-28T06:36:41.534Z,100.00
2022-11-28T06:39:14.351Z,100.00
2022-11-28T06:41:43.456Z,100.00
2022-11-28T06:44:16.681Z,100.00
2022-11-28T06:46:45.388Z,100.00
2022-11-28T06:49:14.478Z,100.00
2022-11-28T06:51:43.175Z,100.00
2022-11-28T06:54:12.047Z,100.00
2022-11-28T06:56:42.869Z,100.00
2022-11-28T06:59:12.176Z,100.00
2022-11-28T07:01:41.332Z,100.00
2022-11-28T07:04:10.374Z,100.00
2022-11-28T07:06:38.584Z,100.00
2022-11-28T07:09:06.880Z,100.00
2022-11-28T07:11:35.192Z,100.00
2022-11-28T07:14:04.003Z,100.00
2022-11-28T07:16:33.877Z,100.00
2022-11-28T07:19:02.950Z,100.00
2022-11-28T07:21:31.512Z,100.00
2022-11-28T07:24:00.213Z,100.00
2022-11-28T07:26:28.879Z,100.00
2022-11-28T07:28:58.447Z,100.00
2022-11-28T07:31:32.007Z,100.00
2022-11-28T07:34:03.726Z,100.00
2022-11-28T07:36:32.288Z,100.00
2022-11-28T07:39:03.206Z,100.00
2022-11-28T07:41:32.109Z,100.00
2022-11-28T07:44:05.453Z,100.00
2022-11-28T07:46:34.397Z,100.00
2022-11-28T07:49:04.616Z,100.00
2022-11-28T07:51:34.791Z,100.00
2022-11-28T07:54:05.095Z,100.00
2022-11-28T07:57:04.505Z,100.00
2022-11-28T07:59:25.227Z,100.00
2022-11-28T08:01:54.245Z,100.00
2022-11-28T08:04:23.215Z,100.00
2022-11-28T08:06:51.649Z,100.00
2022-11-28T08:09:19.866Z,100.00
2022-11-28T08:11:48.244Z,99.99
2022-11-28T08:14:16.844Z,99.78
2022-11-28T08:16:45.429Z,99.55
2022-11-28T08:19:14.088Z,99.23
2022-11-28T08:21:42.891Z,98.85
2022-11-28T08:24:11.928Z,98.80
2022-11-28T08:26:40.208Z,98.33
2022-11-28T08:29:10.064Z,98.61
2022-11-28T08:31:40.079Z,98.69
2022-11-28T08:34:11.050Z,98.80
2022-11-28T08:36:39.962Z,98.66
2022-11-28T08:39:24.776Z,98.55
2022-11-28T08:41:59.164Z,98.55
2022-11-28T08:44:30.406Z,98.85
2022-11-28T08:46:59.190Z,98.75
2022-11-28T08:49:27.464Z,98.67
2022-11-28T08:51:55.684Z,98.64
2022-11-28T08:54:24.533Z,98.65
2022-11-28T08:56:52.847Z,98.52
2022-11-28T08:59:21.317Z,98.56
2022-11-28T09:01:52.235Z,98.52
2022-11-28T09:04:22.368Z,98.23
2022-11-28T09:06:51.608Z,98.02
2022-11-28T09:09:19.907Z,97.69
2022-11-28T09:11:48.368Z,97.38
2022-11-28T09:14:16.673Z,97.16
2022-11-28T09:16:45.048Z,96.88
2022-11-28T09:19:13.583Z,96.91
2022-11-28T09:21:42.276Z,96.70
2022-11-28T09:24:11.899Z,96.56
2022-11-28T09:26:40.413Z,96.75
2022-11-28T09:29:08.772Z,96.69
2022-11-28T09:31:37.016Z,95.86
2022-11-28T09:34:05.701Z,95.22
2022-11-28T09:36:34.174Z,94.16
2022-11-28T09:39:02.627Z,93.53
2022-11-28T09:41:49.368Z,92.63
2022-11-28T09:44:26.466Z,92.47
2022-11-28T09:47:00.463Z,92.58
2022-11-28T09:49:38.573Z,91.76
2022-11-28T09:52:39.778Z,90.25
2022-11-28T09:55:27.069Z,90.17
2022-11-28T09:58:01.201Z,89.65
2022-11-28T10:00:38.768Z,89.90
2022-11-28T10:03:16.535Z,90.22
2022-11-28T10:06:20.195Z,89.52
2022-11-28T10:09:10.173Z,87.45
2022-11-28T10:12:06.024Z,86.52
2022-11-28T10:14:40.411Z,85.35
2022-11-28T10:17:33.629Z,84.96
2022-11-28T10:20:19.087Z,85.55
2022-11-28T10:22:53.527Z,84.96
2022-11-28T10:25:37.880Z,84.74
2022-11-28T10:28:47.901Z,84.23
2022-11-28T10:31:38.797Z,82.73
2022-11-28T10:34:26.876Z,82.54
2022-11-28T10:37:29.791Z,80.72
2022-11-28T10:40:19.649Z,80.27
2022-11-28T10:42:56.429Z,82.08
2022-11-28T10:45:32.457Z,81.24
2022-11-28T10:48:39.057Z,81.24
2022-11-28T10:51:25.043Z,82.57
2022-11-28T10:54:12.453Z,81.82
2022-11-28T10:56:49.598Z,81.43
2022-11-28T10:59:42.964Z,82.51
2022-11-28T11:02:45.090Z,82.82
2022-11-28T11:05:17.932Z,82.44
2022-11-28T11:07:55.641Z,81.23
2022-11-28T11:11:04.069Z,80.61
2022-11-28T11:13:35.647Z,80.87
2022-11-28T11:16:11.553Z,81.70
2022-11-28T11:18:42.921Z,81.34
2022-11-28T11:21:19.140Z,81.92
2022-11-28T11:23:48.998Z,81.60
2022-11-28T11:26:41.293Z,81.54
2022-11-28T11:29:29.283Z,81.88
2022-11-28T11:32:03.693Z,80.92
2022-11-28T11:34:43.105Z,80.07
2022-11-28T11:37:34.615Z,79.90
2022-11-28T11:40:18.523Z,80.14
2022-11-28T11:42:58.777Z,79.86
2022-11-28T11:45:31.989Z,77.99
2022-11-28T11:48:01.963Z,76.71
2022-11-28T11:50:33.333Z,75.86
2022-11-28T11:53:12.554Z,76.54
2022-11-28T11:55:51.575Z,76.31
2022-11-28T11:58:32.920Z,75.83
2022-11-28T12:01:02.609Z,75.79
2022-11-28T12:03:42.220Z,75.61
2022-11-28T12:06:23.783Z,73.48
2022-11-28T12:08:58.643Z,72.21
2022-11-28T12:11:32.296Z,72.06
2022-11-28T12:14:19.590Z,71.16
2022-11-28T12:17:14.303Z,73.14
2022-11-28T12:20:18.981Z,73.54
2022-11-28T12:23:05.711Z,74.24
2022-11-28T12:26:01.816Z,75.04
2022-11-28T12:29:11.309Z,73.81
2022-11-28T12:32:01.272Z,73.26
2022-11-28T12:34:43.099Z,73.21
2022-11-28T12:37:42.040Z,72.44
2022-11-28T12:40:32.762Z,72.59
2022-11-28T12:43:00.928Z,73.61
2022-11-28T12:45:47.445Z,74.62
2022-11-28T12:48:27.659Z,75.48
2022-11-28T12:51:10.805Z,75.94
2022-11-28T12:53:46.061Z,76.92
2022-11-28T12:56:49.708Z,78.04
2022-11-28T12:59:40.407Z,78.55
2022-11-28T13:02:33.363Z,78.07
2022-11-28T13:05:19.601Z,77.75
2022-11-28T13:08:06.900Z,77.22
2022-11-28T13:11:02.496Z,77.55
2022-11-28T13:14:00.206Z,76.96
2022-11-28T13:16:51.747Z,76.97
2022-11-28T13:19:20.257Z,75.79
2022-11-28T13:22:10.324Z,76.27
2022-11-28T13:24:53.640Z,76.18
2022-11-28T13:27:44.613Z,76.79
2022-11-28T13:30:31.387Z,77.12
2022-11-28T13:33:00.070Z,77.16
2022-11-28T13:35:29.170Z,77.29
2022-11-28T13:41:35.193Z,76.38
2022-11-28T13:44:06.099Z,76.75
2022-11-28T13:46:34.775Z,76.67
2022-11-28T13:49:15.377Z,76.80
2022-11-28T13:51:44.349Z,77.13
2022-11-28T13:54:19.397Z,77.07
2022-11-28T13:57:04.052Z,77.55
2022-11-28T13:59:36.112Z,78.04
2022-11-28T14:02:23.308Z,78.49
2022-11-28T14:04:51.967Z,78.58
2022-11-28T14:07:33.243Z,78.66
2022-11-28T14:10:26.833Z,79.09
2022-11-28T14:13:14.151Z,79.35
2022-11-28T14:15:53.734Z,79.66
2022-11-28T14:18:58.952Z,79.99
2022-11-28T14:21:50.090Z,80.31
2022-11-28T14:24:21.882Z,80.62
2022-11-28T14:26:59.220Z,80.90
2022-11-28T14:29:37.229Z,81.22
2022-11-28T14:32:28.854Z,81.54
2022-11-28T14:34:55.682Z,81.81
2022-11-28T14:37:27.636Z,82.12
2022-11-28T14:39:57.755Z,82.38
2022-11-28T14:42:58.754Z,82.68
2022-11-28T14:45:33.000Z,82.93
2022-11-28T14:48:16.135Z,83.32
2022-11-28T14:50:59.336Z,83.57
2022-11-28T14:53:34.706Z,83.76
2022-11-28T14:56:11.767Z,84.04
2022-11-28T14:58:45.448Z,84.30
2022-11-28T15:01:25.826Z,84.52
2022-11-28T15:04:04.561Z,84.61
2022-11-28T15:06:38.912Z,84.93
2022-11-28T15:09:13.293Z,85.25
2022-11-28T15:12:08.658Z,85.44
2022-11-28T15:14:40.162Z,85.78
2022-11-28T15:17:14.207Z,86.04
2022-11-28T15:19:46.538Z,86.33
2022-11-28T15:22:41.317Z,86.65
2022-11-28T15:25:24.977Z,86.74
2022-11-28T15:27:55.580Z,87.04
2022-11-28T15:30:26.909Z,87.29
2022-11-28T15:33:00.424Z,87.52
2022-11-28T15:35:29.148Z,87.71
2022-11-28T15:37:58.511Z,87.98
2022-11-28T15:40:33.798Z,88.16
2022-11-28T15:43:08.051Z,88.40
2022-11-28T15:45:42.949Z,88.43
2022-11-28T15:48:40.040Z,88.46
2022-11-28T15:51:28.139Z,88.74
2022-11-28T15:53:56.830Z,89.02
2022-11-28T15:56:26.028Z,89.13
2022-11-28T15:58:54.477Z,89.24
2022-11-28T16:01:26.409Z,89.38
2022-11-28T16:03:56.936Z,89.64
2022-11-28T16:06:30.060Z,89.94
2022-11-28T16:09:04.228Z,90.05
2022-11-28T16:11:34.800Z,90.18
2022-11-28T16:14:11.367Z,90.40
2022-11-28T16:16:39.997Z,90.90
2022-11-28T16:19:34.191Z,91.11
2022-11-28T16:22:06.448Z,91.49
2022-11-28T16:24:52.644Z,91.74
2022-11-28T16:27:30.348Z,91.98
2022-11-28T16:29:58.982Z,92.27
2022-11-28T16:32:39.580Z,92.40
2022-11-28T16:35:12.551Z,92.57
2022-11-28T16:37:42.427Z,92.82
2022-11-28T16:40:15.809Z,93.07
2022-11-28T16:42:55.964Z,93.09
2022-11-28T16:45:27.930Z,93.33
2022-11-28T16:48:19.569Z,93.66
2022-11-28T16:51:03.021Z,93.86
2022-11-28T16:53:45.127Z,94.07
2022-11-28T16:56:43.101Z,94.21
2022-11-28T16:59:19.008Z,94.25
2022-11-28T17:01:51.991Z,94.53
2022-11-28T17:04:29.675Z,94.55
2022-11-28T17:07:05.353Z,94.96
2022-11-28T17:09:34.133Z,95.21
2022-11-28T17:12:06.315Z,95.46
2022-11-28T17:14:35.187Z,95.59
2022-11-28T17:17:11.855Z,95.77
2022-11-28T17:19:41.065Z,96.18
2022-11-28T17:22:18.186Z,96.57
2022-11-28T17:24:48.619Z,96.92
2022-11-28T17:27:16.953Z,97.44
2022-11-28T17:29:45.363Z,97.79
2022-11-28T17:32:15.426Z,98.13
2022-11-28T17:34:44.049Z,99.01
2022-11-28T17:37:12.909Z,99.43
2022-11-28T17:40:01.156Z,99.82
2022-11-28T17:42:29.469Z,99.85
2022-11-28T17:44:57.935Z,99.90
2022-11-28T17:47:26.386Z,99.94
2022-11-28T17:49:55.716Z,100.00
2022-11-28T17:52:30.466Z,100.00
2022-11-28T17:55:06.975Z,100.00
2022-11-28T17:57:38.667Z,100.00
2022-11-28T18:00:15.650Z,100.00
2022-11-28T18:02:45.760Z,100.00
2022-11-28T18:05:14.136Z,100.00
2022-11-28T18:07:42.748Z,100.00
2022-11-28T18:10:12.862Z,100.00
2022-11-28T18:12:41.709Z,100.00
2022-11-28T18:15:11.060Z,100.00
2022-11-28T18:17:41.489Z,100.00
2022-11-28T18:20:11.383Z,100.00
2022-11-28T18:22:39.794Z,100.00
2022-11-28T18:25:08.888Z,100.00
2022-11-28T18:27:37.593Z,100.00
2022-11-28T18:30:07.152Z,100.00
2022-11-28T18:32:35.377Z,100.00
2022-11-28T18:35:03.948Z,100.00
2022-11-28T18:37:32.480Z,100.00
2022-11-28T18:40:03.125Z,100.00
2022-11-28T18:42:35.239Z,100.00
2022-11-28T18:45:03.998Z,100.00
2022-11-28T18:47:32.303Z,100.00
2022-11-28T18:50:00.640Z,100.00
2022-11-28T18:52:29.484Z,100.00
2022-11-28T18:54:57.729Z,100.00
2022-11-28T18:57:31.314Z,100.00
2022-11-28T19:00:01.273Z,100.00
2022-11-28T19:02:30.889Z,100.00
2022-11-28T19:04:59.464Z,100.00
2022-11-28T19:07:27.999Z,100.00
2022-11-28T19:09:56.625Z,100.00
2022-11-28T19:12:31.769Z,100.00
2022-11-28T19:15:02.783Z,100.00
2022-11-28T19:17:31.397Z,100.00
2022-11-28T19:19:59.857Z,100.00
2022-11-28T19:22:32.023Z,100.00
2022-11-28T19:25:00.404Z,100.00
2022-11-28T19:27:28.871Z,100.00
2022-11-28T19:29:57.860Z,100.00
2022-11-28T19:32:26.208Z,100.00
2022-11-28T19:34:55.337Z,100.00
2022-11-28T19:37:23.860Z,100.00
2022-11-28T19:40:02.369Z,100.00
2022-11-28T19:42:38.280Z,100.00
2022-11-28T19:45:07.961Z,100.00
2022-11-28T19:47:36.956Z,100.00
2022-11-28T19:50:09.939Z,100.00
2022-11-28T19:52:41.159Z,100.00
2022-11-28T19:55:10.157Z,100.00
2022-11-28T19:57:38.901Z,100.00
2022-11-28T20:00:08.098Z,100.00
2022-11-28T20:02:48.147Z,100.00
2022-11-28T20:05:19.247Z,100.00
2022-11-28T20:07:58.188Z,100.00
2022-11-28T20:10:30.660Z,100.00
2022-11-28T20:13:02.299Z,100.00
2022-11-28T20:15:32.362Z,100.00
2022-11-28T20:18:00.814Z,100.00
2022-11-28T20:20:30.623Z,100.00
2022-11-28T20:23:01.713Z,100.00
2022-11-28T20:25:30.077Z,100.00
2022-11-28T20:27:58.380Z,100.00
2022-11-28T20:30:26.806Z,100.00
2022-11-28T20:32:55.712Z,100.00
2022-11-28T20:35:30.329Z,100.00
2022-11-28T20:38:00.685Z,100.00
2022-11-28T20:40:30.463Z,100.00
2022-11-28T20:43:01.297Z,100.00
2022-11-28T20:45:29.726Z,100.00
2022-11-28T20:47:58.804Z,100.00
2022-11-28T20:50:28.496Z,100.00
2022-11-28T20:52:57.589Z,100.00
2022-11-28T20:55:28.744Z,100.00
2022-11-28T20:57:58.911Z,100.00
2022-11-28T21:00:28.316Z,100.00
2022-11-28T21:02:56.612Z,100.00
2022-11-28T21:05:25.131Z,100.00
2022-11-28T21:07:57.044Z,100.00
2022-11-28T21:10:26.334Z,100.00
2022-11-28T21:12:57.228Z,100.00
2022-11-28T21:15:26.767Z,100.00
2022-11-28T21:17:55.652Z,100.00
2022-11-28T21:20:24.480Z,100.00
2022-11-28T21:22:53.837Z,100.00
2022-11-28T21:25:26.819Z,100.00
2022-11-28T21:27:55.225Z,100.00
2022-11-28T21:30:23.775Z,100.00
2022-11-28T21:32:52.243Z,100.00
2022-11-28T21:35:23.847Z,100.00
2022-11-28T21:37:53.120Z,100.00
2022-11-28T21:40:22.575Z,100.00
2022-11-28T21:42:52.759Z,100.00
2022-11-28T21:45:24.062Z,100.00
2022-11-28T21:47:53.061Z,100.00
2022-11-28T21:50:23.996Z,100.00
2022-11-28T21:52:52.566Z,100.00
2022-11-28T21:55:22.596Z,100.00
2022-11-28T22:01:02.753Z,100.00
2022-11-28T22:03:32.660Z,100.00
2022-11-28T22:06:08.210Z,100.00
2022-11-28T22:08:37.633Z,100.00
2022-11-28T22:11:11.389Z,100.00
2022-11-28T22:13:42.921Z,100.00
2022-11-28T22:16:18.397Z,100.00
2022-11-28T22:18:51.124Z,100.00
2022-11-28T22:24:09.723Z,100.00
2022-11-28T22:26:38.577Z,100.00
2022-11-28T22:29:07.179Z,100.00
2022-11-28T22:31:36.134Z,100.00
2022-11-28T22:34:04.925Z,100.00
2022-11-28T22:36:34.648Z,100.00
2022-11-28T22:39:06.511Z,100.00
2022-11-28T22:41:35.084Z,100.00
2022-11-28T22:48:20.331Z,100.00
2022-11-28T22:50:48.752Z,100.00
2022-11-28T22:53:19.583Z,100.00
2022-11-28T22:55:48.708Z,100.00
2022-11-28T22:58:19.701Z,100.00
2022-11-28T23:00:50.127Z,100.00
2022-11-28T23:07:38.810Z,100.00
2022-11-28T23:10:10.581Z,100.00
2022-11-28T23:12:42.084Z,100.00
2022-11-28T23:15:19.153Z,100.00
2022-11-28T23:17:48.193Z,100.00
2022-11-28T23:20:22.533Z,100.00
2022-11-28T23:22:50.877Z,100.00
2022-11-28T23:25:19.876Z,100.00
2022-11-28T23:27:49.726Z,100.00
2022-11-28T23:30:24.225Z,100.00
2022-11-28T23:33:07.088Z,100.00
2022-11-28T23:35:43.654Z,100.00
2022-11-28T23:38:19.079Z,100.00
2022-11-28T23:40:57.735Z,100.00
2022-11-28T23:44:38.391Z,100.00
2022-11-28T23:47:10.063Z,100.00
2022-11-28T23:49:42.645Z,100.00
2022-11-28T23:52:26.481Z,100.00
2022-11-28T23:54:58.372Z,100.00
2022-11-28T23:57:29.381Z,100.00
